Latest Coastal Weather Observations for Learmonth

IDW60701

Issued at 2:43 am WST Monday 27 March 2017 (issued every 10 minutes, with the page automatically refreshed every 10 minutes)

About coastal observations | Map of coastal stations | Coastal observations for WA | Marine services | Other Formats
Station Details ID: 005007 Name: LEARMONTH AIRPORT Lat: -22.24 Lon: 114.10 Height: 5.0 m
Data from the previous 72 hours. | See also: Recent months at Learmonth
Date/Time
WST
Temp
°C
Wind Pressure Rain since
9am
mm
Weather Cloud Vis
km
Sea
Height
m
Swell
Dir  Spd
kts
Gust
kts
hPa Trend Height
m
Period
s
Dir
27/02:30am 24.7 SSW 12 15 1009.8 - 0.0 - - 10 - - - -
27/02:00am 24.9 SSW 11 15 1010.0 - 0.0 - - 10 - - - -
27/01:30am 25.4 SSW 12 17 1010.1 - 0.0 - - 10 - - - -
27/01:00am 25.3 SSW 11 13 1010.3 - 0.0 - - 10 - - - -
27/12:30am 25.5 SSW 10 12 1010.3 - 0.0 - - 10 - - - -
27/12:00am 26.0 SSW 11 15 1010.2 - 0.0 - - 10 - - - -
 
Date/Time
WST
Temp
°C
Wind Pressure Rain since
9am
mm
Weather Cloud Vis
km
Sea
Height
m
Swell
Dir  Spd
kts
Gust
kts
hPa Trend Height
m
Period
s
Dir
26/11:30pm 26.5 SSW 12 16 1010.3 - 0.0 - Partly cloudy 10 - - - -
26/11:00pm 27.4 SSW 13 17 1010.3 - 0.0 - Cloudy 10 - - - -
26/10:30pm 27.5 SSW 12 16 1010.1 - 0.0 - Partly cloudy 10 - - - -
26/10:00pm 27.3 SSW 12 16 1009.9 - 0.0 - Partly cloudy 10 - - - -
26/09:30pm 27.4 SSW 13 18 1009.7 - 0.0 - - 10 - - - -
26/09:00pm 27.6 SSW 14 17 1009.2 - 0.0 - - 10 - - - -
26/08:30pm 27.8 SSW 16 21 1009.2 - 0.0 - - 10 - - - -
26/08:00pm 28.3 SSW 18 24 1008.8 - 0.0 - - 10 - - - -
26/07:32pm 28.5 SSW 19 25 1008.5 - 0.0 - - 10 - - - -
26/07:30pm 28.5 SSW 19 25 1008.5 - 0.0 - - 10 - - - -
26/07:00pm 28.6 SSW 17 22 1008.1 - 0.0 - - 5 - - - -
26/06:30pm 29.4 SW 17 24 1007.9 - 0.0 - Partly cloudy 3 - - - -
26/06:00pm 30.4 SW 17 22 1007.4 - 0.0 - - 3 - - - -
26/05:30pm 32.7 SW 17 23 1007.0 - 0.0 - Partly cloudy 3 - - - -
26/05:00pm 34.7 SW 15 20 1006.8 - 0.0 - Cloudy 5 - - - -
26/04:58pm 35.1 SW 14 20 1006.7 - 0.0 - Partly cloudy 8 - - - -
26/04:30pm 36.3 S 13 19 1006.9 - 0.0 - Partly cloudy 10 - - - -
26/04:00pm 37.2 SSE 10 13 1007.0 - 0.0 - Partly cloudy 10 - - - -
26/03:30pm 36.8 S 12 17 1007.1 - 0.0 - - 10 - - - -
26/03:00pm 36.1 SE 13 19 1007.1 - 0.0 - - 10 - - - -
26/02:30pm 36.3 SE 14 20 1007.5 - 0.0 - - 10 - - - -
26/02:00pm 35.3 SSE 13 20 1007.7 - 0.0 - - 10 - - - -
26/01:30pm 35.5 SE 14 19 1008.0 - 0.0 - - 10 - - - -
26/01:00pm 34.7 S 13 19 1008.3 - 0.0 - - 10 - - - -
26/12:30pm 33.8 SSE 13 18 1008.8 - 0.0 - - 10 - - - -
26/12:00pm 32.9 S 14 20 1008.9 - 0.0 - - 10 - - - -
26/11:30am 31.2 SSE 15 20 1009.3 - 0.0 - - 10 - - - -
26/11:00am 31.3 SSE 16 21 1009.7 - 0.0 - - 10 - - - -
26/10:30am 30.1 SSE 15 19 1009.9 - 0.0 - - 10 - - - -
26/10:00am 29.2 S 15 22 1010.1 - 0.0 - - 10 - - - -
26/09:30am 28.3 S 15 20 1010.6 - 0.0 - - 10 - - - -
26/09:00am 26.6 S 17 22 1010.6 - 0.0 - - 10 - - - -
26/08:30am 25.4 S 18 24 1010.7 - 0.0 - - 10 - - - -
26/08:00am 24.3 S 16 21 1010.6 - 0.0 - - 10 - - - -
26/07:30am 23.2 SSW 17 22 1010.3 - 0.0 - - 10 - - - -
26/07:00am 22.5 SSW 17 23 1010.1 - 0.0 - - 10 - - - -
26/06:30am 22.6 SSW 15 19 1009.9 - 0.0 - - 10 - - - -
26/06:00am 23.0 SSW 16 20 1009.4 - 0.0 - - 10 - - - -
26/05:30am 23.3 SSW 14 19 1009.3 - 0.0 - - 10 - - - -
26/05:00am 23.4 SSW 14 19 1009.2 - 0.0 - - 10 - - - -
26/04:30am 23.7 SSW 14 18 1009.0 - 0.0 - - 10 - - - -
26/04:00am 24.0 SW 13 17 1008.8 - 0.0 - Partly cloudy 10 - - - -
26/03:30am 24.5 SW 13 16 1008.8 - 0.0 - Cloudy 10 - - - -
26/03:00am 24.8 SW 12 16 1008.6 - 0.0 - Mostly cloudy 10 - - - -
26/02:30am 25.1 SW 13 16 1008.8 - 0.0 - Partly cloudy 10 - - - -
26/02:00am 25.3 WSW 14 18 1008.9 - 0.0 - Partly cloudy 10 - - - -
26/01:30am 25.5 SW 12 17 1009.2 - 0.0 - Cloudy 10 - - - -
26/01:00am 25.4 WSW 9 13 1009.4 - 0.0 - Partly cloudy 10 - - - -
26/12:30am 25.3 WSW 10 13 1009.5 - 0.0 - - 10 - - - -
26/12:00am 25.4 WSW 11 14 1009.4 - 0.0 - - 10 - - - -
 
Date/Time
WST
Temp
°C
Wind Pressure Rain since
9am
mm
Weather Cloud Vis
km
Sea
Height
m
Swell
Dir  Spd
kts
Gust
kts
hPa Trend Height
m
Period
s
Dir
25/11:30pm 25.6 WSW 9 12 1009.6 - 0.0 - Partly cloudy 10 - - - -
25/11:00pm 25.7 WSW 10 13 1009.7 - 0.0 - Partly cloudy 10 - - - -
25/10:30pm 25.6 WSW 10 13 1009.5 - 0.0 - Partly cloudy 10 - - - -
25/10:00pm 25.7 WSW 14 18 1009.7 - 0.0 - - 10 - - - -
25/09:30pm 26.1 SW 13 17 1009.5 - 0.0 - - 10 - - - -
25/09:00pm 26.2 SW 15 20 1009.2 - 0.0 - Partly cloudy 10 - - - -
25/08:30pm 26.3 WSW 14 18 1009.3 - 0.0 - Partly cloudy 10 - - - -
25/08:00pm 26.2 WSW 15 20 1008.5 - 0.0 - - 10 - - - -
25/07:30pm 26.3 WSW 17 22 1008.0 - 0.0 - - 10 - - - -
25/07:00pm 26.7 W 17 20 1007.6 - 0.0 - - 10 - - - -
25/06:30pm 27.7 WSW 15 19 1007.2 - 0.0 - - 10 - - - -
25/06:00pm 28.8 W 16 21 1006.8 - 0.0 - - 10 - - - -
25/05:30pm 30.0 W 16 20 1006.7 - 0.0 - - 10 - - - -
25/05:00pm 31.0 W 17 21 1006.4 - 0.0 - - 10 - - - -
25/04:30pm 31.9 W 16 20 1006.2 - 0.0 - - 10 - - - -
25/04:00pm 33.5 W 13 18 1005.9 - 0.0 - - 10 - - - -
25/03:30pm 33.8 W 11 19 1005.8 - 0.0 - - 10 - - - -
25/03:00pm 33.1 W 9 14 1005.9 - 0.0 - Mostly clear 10 - - - -
25/02:30pm 33.2 WNW 10 11 1006.2 - 0.0 - Partly cloudy 10 - - - -
25/02:00pm 32.5 NNE 6 8 1006.6 - 0.0 - Partly cloudy 10 - - - -
25/01:30pm 32.8 NE 9 12 1007.0 - 0.0 - Partly cloudy 10 - - - -
25/01:00pm 32.0 ENE 10 13 1007.1 - 0.0 - - 10 - - - -
25/12:30pm 31.6 E 10 13 1007.6 - 0.0 - - 10 - - - -
25/12:00pm 30.6 E 11 12 1007.9 - 0.0 - - 10 - - - -
25/11:30am 31.1 E 11 12 1008.3 - 0.0 - - 10 - - - -
25/11:00am 31.0 E 10 13 1008.6 - 0.0 - - 10 - - - -
25/10:30am 31.0 SSE 6 11 1008.8 - 0.0 - - 10 - - - -
25/10:00am 30.2 S 6 11 1009.0 - 0.0 - - 10 - - - -
25/09:30am 28.8 SW 8 13 1009.1 - 0.0 - - 10 - - - -
25/09:00am 28.5 S 9 12 1008.9 - 0.0 - - 10 - - - -
25/08:30am 26.7 SW 13 15 1009.0 - 0.0 - - 10 - - - -
25/08:00am 25.5 SW 10 12 1008.8 - 0.0 - - 10 - - - -
25/07:30am 23.7 SW 10 12 1008.6 - 0.0 - - 10 - - - -
25/06:30am 21.8 SW 7 8 1008.4 - 0.0 - - 10 - - - -
25/06:00am 21.9 SW 8 9 1008.1 - 0.0 - - 10 - - - -
25/05:30am 22.1 SW 8 10 1007.9 - 0.0 - - 10 - - - -
25/05:00am 22.3 SW 10 13 1007.7 - 0.0 - - 10 - - - -
25/04:30am 22.3 SW 10 13 1007.4 - 0.0 - - 10 - - - -
25/04:00am 22.3 SW 10 13 1007.4 - 0.0 - - 10 - - - -
25/03:30am 22.4 SW 9 12 1007.3 - 0.0 - - 10 - - - -
25/03:00am 22.5 SW 10 13 1007.2 - 0.0 - - 10 - - - -
25/02:30am 22.4 SW 9 12 1007.4 - 0.0 - - 10 - - - -
25/02:00am 22.7 SW 8 11 1007.6 - 0.0 - - 10 - - - -
25/01:30am 23.3 SW 11 14 1007.8 - 0.0 - - 10 - - - -
25/01:00am 23.5 SW 13 17 1008.0 - 0.0 - - 10 - - - -
25/12:30am 23.6 SW 13 17 1008.2 - 0.0 - - 10 - - - -
25/12:00am 23.8 SW 13 17 1008.1 - 0.0 - - 10 - - - -
 
Date/Time
WST
Temp
°C
Wind Pressure Rain since
9am
mm
Weather Cloud Vis
km
Sea
Height
m
Swell
Dir  Spd
kts
Gust
kts
hPa Trend Height
m
Period
s
Dir
24/11:30pm 24.0 SW 13 18 1008.3 - 0.0 - - 10 - - - -
24/11:00pm 24.2 SW 14 19 1008.3 - 0.0 - - 10 - - - -
24/10:30pm 24.5 SW 15 19 1008.3 - 0.0 - - 10 - - - -
24/10:00pm 24.8 SW 13 17 1008.3 - 0.0 - - 10 - - - -
24/09:30pm 25.1 SW 12 16 1008.2 - 0.0 - - 10 - - - -
24/09:00pm 25.5 SW 13 17 1007.8 - 0.0 - - 10 - - - -
24/08:30pm 25.8 SW 12 16 1007.4 - 0.0 - - 10 - - - -
24/08:00pm 26.3 SW 13 17 1007.0 - 0.0 - - 10 - - - -
24/07:30pm 26.9 SW 15 20 1006.7 - 0.0 - - 10 - - - -
24/07:00pm 28.1 SW 14 19 1006.2 - 0.0 - - 10 - - - -
24/06:30pm 29.5 SW 11 14 1005.9 - 0.0 - - 10 - - - -
24/06:00pm 30.8 SSW 15 20 1005.4 - 0.0 - - 10 - - - -
24/05:30pm 32.1 SSW 15 20 1005.1 - 0.0 - - 10 - - - -
24/05:00pm 33.3 SSW 17 22 1004.7 - 0.0 - - 10 - - - -
24/04:30pm 34.1 SW 17 21 1004.5 - 0.0 - - 10 - - - -
24/04:00pm 35.1 SSW 13 18 1004.4 - 0.0 - - 10 - - - -
24/03:30pm 34.0 ENE 6 7 1004.6 - 0.0 - Partly cloudy 10 - - - -
24/03:00pm 33.2 NNE 11 13 1004.7 - 0.0 - Mostly clear 10 - - - -
24/02:30pm 32.9 NNE 9 14 1005.0 - 0.0 - Partly cloudy 10 - - - -
24/02:00pm 33.1 NNE 11 15 1005.0 - 0.0 - Partly cloudy 10 - - - -
24/01:30pm 33.1 ENE 13 16 1005.2 - 0.0 - Partly cloudy 10 - - - -
24/01:00pm 32.9 ENE 12 15 1005.5 - 0.0 - Partly cloudy 10 - - - -
24/12:30pm 32.4 E 11 14 1006.2 - 0.0 - - 10 - - - -
24/12:00pm 31.9 E 10 14 1006.6 - 0.0 - Mostly clear 10 - - - -
24/11:30am 31.8 ESE 11 14 1007.0 - 0.0 - - 10 - - - -
24/11:00am 30.7 ESE 10 14 1007.4 - 0.0 - - 10 - - - -
24/10:30am 30.1 S 9 13 1007.6 - 0.0 - - 10 - - - -
24/09:30am 28.4 S 10 12 1007.8 - 0.0 - - 10 - - - -
24/09:00am 26.7 S 11 13 1007.5 - 0.0 - - 10 - - - -
24/08:30am 25.0 SSW 10 13 1007.6 - 0.0 - - 10 - - - -
24/08:00am 24.1 SSW 11 14 1007.3 - 0.0 - - 10 - - - -
24/07:30am 22.6 SSW 11 13 1007.2 - 0.0 - - 10 - - - -
24/07:00am 21.7 SSW 10 12 1006.8 - 0.0 - - 10 - - - -
24/06:30am 21.5 SSW 10 12 1006.6 - 0.0 - - 10 - - - -
24/06:00am 21.8 SSW 9 12 1006.3 - 0.0 - - 10 - - - -
24/05:30am 21.9 SSW 10 12 1006.2 - 0.0 - - 10 - - - -
24/05:00am 22.0 SSW 9 12 1005.9 - 0.0 - - 10 - - - -
24/04:30am 22.3 SW 10 12 1006.0 - 0.0 - - 10 - - - -
24/04:00am 22.5 SSW 11 15 1005.9 - 0.0 - - 10 - - - -
24/03:30am 22.7 SSW 12 16 1005.9 - 0.0 - - 10 - - - -
24/03:00am 23.0 SW 12 16 1006.0 - 0.0 - - 10 - - - -

Other Formats:

Comma delimited format used in spreadsheet applications
http://www.bom.gov.au/fwo/IDW60701/IDW60701.94302.axf

JavaScript Object Notation format (JSON) in row-major order
http://www.bom.gov.au/fwo/IDW60701/IDW60701.94302.json